createdAt,value
2023-05-14T00:00:44.456Z,100.81
2023-05-14T00:01:47.994Z,100.72
2023-05-14T00:02:51.436Z,97.44
2023-05-14T00:03:54.774Z,104.39
2023-05-14T00:04:58.068Z,93.55
2023-05-14T00:06:01.358Z,93.42
2023-05-14T00:07:04.812Z,89.83
2023-05-14T00:08:08.162Z,90.53
2023-05-14T00:09:11.450Z,92.35
2023-05-14T00:10:14.674Z,95.21
2023-05-14T00:11:18.083Z,89.41
2023-05-14T00:12:21.336Z,91.66
2023-05-14T00:13:24.596Z,87.37
2023-05-14T00:14:28.027Z,94.29
2023-05-14T00:15:32.951Z,89.72
2023-05-14T00:16:37.658Z,94.02
2023-05-14T00:17:41.284Z,95.66
2023-05-14T00:18:44.721Z,92.71
2023-05-14T00:19:48.056Z,90.16
2023-05-14T00:20:55.296Z,89.58
2023-05-14T00:21:58.555Z,89.98
2023-05-14T00:23:02.058Z,89.68
2023-05-14T00:24:06.218Z,88.62
2023-05-14T00:25:10.459Z,85.56
2023-05-14T00:26:14.367Z,86.88
2023-05-14T00:27:20.437Z,86.37
2023-05-14T00:28:23.709Z,86.22
2023-05-14T00:29:27.006Z,82.47
2023-05-14T00:30:30.439Z,84.57
2023-05-14T00:31:33.882Z,83.64
2023-05-14T00:32:37.222Z,88.48
2023-05-14T00:33:46.914Z,85.62
2023-05-14T00:35:03.219Z,84.62
2023-05-14T00:36:44.460Z,89.57
2023-05-14T00:38:00.202Z,89.75
2023-05-14T00:39:11.623Z,85.79
2023-05-14T00:40:19.688Z,84.18
2023-05-14T00:41:34.206Z,86.48
2023-05-14T00:42:57.793Z,84.02
2023-05-14T00:45:50.560Z,89.46
2023-05-14T00:47:43.247Z,87.10
2023-05-14T00:48:54.238Z,85.94
2023-05-14T00:50:41.295Z,84.77
2023-05-14T00:51:51.164Z,86.42
2023-05-14T00:52:54.615Z,85.16
2023-05-14T00:53:58.268Z,82.82
2023-05-14T00:55:06.225Z,85.04
2023-05-14T00:56:28.598Z,86.03
2023-05-14T00:57:46.442Z,87.36
2023-05-14T00:59:15.418Z,90.55
2023-05-14T01:00:20.829Z,91.34
2023-05-14T01:01:29.490Z,93.38
2023-05-14T01:02:46.644Z,84.43
2023-05-14T01:03:55.554Z,82.28
2023-05-14T01:05:00.350Z,78.74
2023-05-14T01:06:31.588Z,78.90
2023-05-14T01:08:25.653Z,82.39
2023-05-14T01:09:59.100Z,83.38
2023-05-14T01:12:06.397Z,80.62
2023-05-14T01:13:38.901Z,81.11
2023-05-14T01:15:19.952Z,81.60
2023-05-14T01:16:31.109Z,80.63
2023-05-14T01:17:58.227Z,82.58
2023-05-14T01:19:13.982Z,82.86
2023-05-14T01:20:50.166Z,84.54
2023-05-14T01:22:02.903Z,85.84
2023-05-14T01:23:07.434Z,82.78
2023-05-14T01:24:22.868Z,82.44
2023-05-14T01:25:35.526Z,88.53
2023-05-14T01:26:39.504Z,82.27
2023-05-14T01:28:06.226Z,83.26
2023-05-14T01:29:20.278Z,83.94
2023-05-14T01:30:35.190Z,84.26
2023-05-14T01:32:02.382Z,83.71
2023-05-14T01:33:44.612Z,85.12
2023-05-14T01:34:53.077Z,86.09
2023-05-14T01:35:57.343Z,84.99
2023-05-14T01:37:02.463Z,85.61
2023-05-14T01:38:10.393Z,88.04
2023-05-14T01:39:16.290Z,88.01
2023-05-14T01:40:20.409Z,86.13
2023-05-14T01:41:27.690Z,85.74
2023-05-14T01:42:31.703Z,85.85
2023-05-14T01:43:36.510Z,86.67
2023-05-14T01:44:40.144Z,80.78
2023-05-14T01:45:44.573Z,82.54
2023-05-14T01:46:47.901Z,82.27
2023-05-14T01:47:52.560Z,81.58
2023-05-14T01:48:55.876Z,84.47
2023-05-14T01:49:59.223Z,82.60
2023-05-14T01:51:03.328Z,84.88
2023-05-14T01:52:06.960Z,84.65
2023-05-14T01:53:10.458Z,79.91
2023-05-14T01:54:13.736Z,86.33
2023-05-14T01:55:17.041Z,80.71
2023-05-14T01:56:22.539Z,82.82
2023-05-14T01:57:26.341Z,83.74
2023-05-14T01:58:29.761Z,83.87
2023-05-14T01:59:33.020Z,85.53
2023-05-14T02:00:36.326Z,84.13
2023-05-14T02:01:39.904Z,80.13
2023-05-14T02:02:43.262Z,80.77
2023-05-14T02:03:48.370Z,84.53
2023-05-14T02:04:51.990Z,87.97
2023-05-14T02:05:55.227Z,87.23
2023-05-14T02:06:59.180Z,85.02
2023-05-14T02:08:02.485Z,82.08
2023-05-14T02:09:06.340Z,83.58
2023-05-14T02:10:10.404Z,83.16
2023-05-14T02:11:13.600Z,79.80
2023-05-14T02:12:16.941Z,84.32
2023-05-14T02:13:20.442Z,86.96
2023-05-14T02:14:23.625Z,81.41
2023-05-14T02:15:26.837Z,81.38
2023-05-14T02:16:30.146Z,85.17
2023-05-14T02:17:33.626Z,83.71
2023-05-14T02:18:36.931Z,87.66
2023-05-14T02:19:40.208Z,85.61
2023-05-14T02:20:43.413Z,84.43
2023-05-14T02:21:46.896Z,87.92
2023-05-14T02:22:50.169Z,86.48
2023-05-14T02:23:53.499Z,85.73
2023-05-14T02:24:56.844Z,82.32
2023-05-14T02:26:00.033Z,84.87
2023-05-14T02:27:03.469Z,84.60
2023-05-14T02:28:06.699Z,86.59
2023-05-14T02:29:10.209Z,85.20
2023-05-14T02:30:13.663Z,82.73
2023-05-14T02:31:19.744Z,85.35
2023-05-14T02:32:23.115Z,86.54
2023-05-14T02:33:26.600Z,90.93
2023-05-14T02:34:29.890Z,89.78
2023-05-14T02:35:33.165Z,89.59
2023-05-14T02:36:36.482Z,86.80
2023-05-14T02:37:39.890Z,89.38
2023-05-14T02:38:43.272Z,89.74
2023-05-14T02:39:46.668Z,91.04
2023-05-14T02:40:52.029Z,88.27
2023-05-14T02:41:55.507Z,90.84
2023-05-14T02:42:58.744Z,84.86
2023-05-14T02:44:02.203Z,88.86
2023-05-14T02:45:05.837Z,85.11
2023-05-14T02:46:09.097Z,85.26
2023-05-14T02:47:12.455Z,86.23
2023-05-14T02:48:15.858Z,90.95
2023-05-14T02:49:19.006Z,84.47
2023-05-14T02:50:22.624Z,88.84
2023-05-14T02:51:26.042Z,87.92
2023-05-14T02:52:29.494Z,89.10
2023-05-14T02:53:32.696Z,85.35
2023-05-14T02:54:36.012Z,84.62
2023-05-14T02:55:39.242Z,88.40
2023-05-14T02:56:42.419Z,86.71
2023-05-14T02:57:45.678Z,91.31
2023-05-14T02:58:48.964Z,88.90
2023-05-14T02:59:52.172Z,86.33
2023-05-14T03:00:56.138Z,84.72
2023-05-14T03:01:59.979Z,83.81
2023-05-14T03:03:03.577Z,81.76
2023-05-14T03:04:07.337Z,83.10
2023-05-14T03:05:10.574Z,86.16
2023-05-14T03:06:13.765Z,87.81
2023-05-14T03:07:17.682Z,86.41
2023-05-14T03:08:21.264Z,86.46
2023-05-14T03:09:24.564Z,85.62
2023-05-14T03:10:27.875Z,89.37
2023-05-14T03:11:31.264Z,86.17
2023-05-14T03:12:34.609Z,82.51
2023-05-14T03:13:37.817Z,82.47
2023-05-14T03:14:41.046Z,85.18
2023-05-14T03:15:45.241Z,84.12
2023-05-14T03:16:48.887Z,85.67
2023-05-14T03:17:52.252Z,90.42
2023-05-14T03:18:55.699Z,86.17
2023-05-14T03:19:58.976Z,82.67
2023-05-14T03:21:04.532Z,84.33
2023-05-14T03:22:08.066Z,83.85
2023-05-14T03:23:11.546Z,84.24
2023-05-14T03:24:14.735Z,81.99
2023-05-14T03:25:18.260Z,83.13
2023-05-14T03:26:22.900Z,81.07
2023-05-14T03:27:29.126Z,78.89
2023-05-14T03:28:32.318Z,81.64
2023-05-14T03:29:36.197Z,80.06
2023-05-14T03:30:39.529Z,79.65
2023-05-14T03:31:42.758Z,80.45
2023-05-14T03:32:46.923Z,76.99
2023-05-14T03:33:50.203Z,82.63
2023-05-14T03:34:53.553Z,79.67
2023-05-14T03:35:56.782Z,81.38
2023-05-14T03:37:00.202Z,83.01
2023-05-14T03:38:04.553Z,81.65
2023-05-14T03:39:10.744Z,80.06
2023-05-14T03:40:14.083Z,77.94
2023-05-14T03:41:20.709Z,80.50
2023-05-14T03:42:24.210Z,84.45
2023-05-14T03:43:27.447Z,84.73
2023-05-14T03:44:31.246Z,87.06
2023-05-14T03:45:34.680Z,80.06
2023-05-14T03:46:37.947Z,80.52
2023-05-14T03:47:41.751Z,83.71
2023-05-14T03:48:45.301Z,85.54
2023-05-14T03:49:49.089Z,82.69
2023-05-14T03:50:52.915Z,82.00
2023-05-14T03:51:56.571Z,84.76
2023-05-14T03:52:59.835Z,86.22
2023-05-14T03:54:05.186Z,85.85
2023-05-14T03:55:09.959Z,86.02
2023-05-14T03:56:13.341Z,85.03
2023-05-14T03:57:16.731Z,83.48
2023-05-14T03:58:19.867Z,85.47
2023-05-14T03:59:23.186Z,84.22
2023-05-14T04:00:26.592Z,84.72
2023-05-14T04:01:29.997Z,83.89
2023-05-14T04:02:34.493Z,84.75
2023-05-14T04:03:37.947Z,86.71
2023-05-14T04:04:41.817Z,82.80
2023-05-14T04:05:45.212Z,86.09
2023-05-14T04:06:48.585Z,86.62
2023-05-14T04:07:53.220Z,83.28
2023-05-14T04:08:56.832Z,83.18
2023-05-14T04:10:02.624Z,82.39
2023-05-14T04:11:07.500Z,86.17
2023-05-14T04:12:10.849Z,85.12
2023-05-14T04:13:14.039Z,84.80
2023-05-14T04:14:17.390Z,85.87
2023-05-14T04:15:21.494Z,84.16
2023-05-14T04:16:24.770Z,83.30
2023-05-14T04:17:28.296Z,84.16
2023-05-14T04:18:35.655Z,86.58
2023-05-14T04:19:39.985Z,85.25
2023-05-14T04:20:43.210Z,86.75
2023-05-14T04:21:46.465Z,84.75
2023-05-14T04:22:49.685Z,84.05
2023-05-14T04:23:52.926Z,85.22
2023-05-14T04:24:56.178Z,89.41
2023-05-14T04:25:59.923Z,88.65
2023-05-14T04:27:03.129Z,87.22
2023-05-14T04:28:06.681Z,94.11
2023-05-14T04:29:09.888Z,92.58
2023-05-14T04:30:13.542Z,94.71
2023-05-14T04:31:17.060Z,91.39
2023-05-14T04:32:21.155Z,91.48
2023-05-14T04:33:24.379Z,94.93
2023-05-14T04:34:27.673Z,93.51
2023-05-14T04:35:31.037Z,92.80
2023-05-14T04:36:34.249Z,92.83
2023-05-14T04:37:37.648Z,91.75
2023-05-14T04:38:40.858Z,93.18
2023-05-14T04:39:44.325Z,99.38
2023-05-14T04:40:47.521Z,92.32
2023-05-14T04:41:50.759Z,95.28
2023-05-14T04:42:53.950Z,93.98
2023-05-14T04:43:59.929Z,100.67
2023-05-14T04:45:03.361Z,99.05
2023-05-14T04:46:07.029Z,95.16
2023-05-14T04:47:10.299Z,97.68
2023-05-14T04:48:13.586Z,90.64
2023-05-14T04:49:16.829Z,93.19
2023-05-14T04:50:20.069Z,97.79
2023-05-14T04:51:23.846Z,95.22
2023-05-14T04:52:27.393Z,97.62
2023-05-14T04:53:31.255Z,100.58
2023-05-14T04:54:34.712Z,96.30
2023-05-14T04:55:38.409Z,95.76
2023-05-14T04:56:41.831Z,101.09
2023-05-14T04:57:45.075Z,100.22
2023-05-14T04:58:48.500Z,102.56
2023-05-14T04:59:51.878Z,102.07
2023-05-14T05:00:55.149Z,98.21
2023-05-14T05:01:58.677Z,99.46
2023-05-14T05:03:02.100Z,104.44
2023-05-14T05:04:05.603Z,98.81
2023-05-14T05:05:10.211Z,99.42
2023-05-14T05:06:13.440Z,104.11
2023-05-14T05:07:16.742Z,104.42
2023-05-14T05:08:20.022Z,103.62
2023-05-14T05:09:23.223Z,101.44
2023-05-14T05:10:26.756Z,106.91
2023-05-14T05:11:30.097Z,105.82
2023-05-14T05:12:33.296Z,100.29
2023-05-14T05:13:36.678Z,102.13
2023-05-14T05:14:39.905Z,101.36
2023-05-14T05:15:43.092Z,106.92
2023-05-14T05:16:46.536Z,102.96
2023-05-14T05:17:49.988Z,105.84
2023-05-14T05:18:53.462Z,105.68
2023-05-14T05:19:56.681Z,101.26
2023-05-14T05:20:59.966Z,100.48
2023-05-14T05:22:03.325Z,102.62
2023-05-14T05:23:06.683Z,104.05
2023-05-14T05:24:10.043Z,103.96
2023-05-14T05:25:13.662Z,100.12
2023-05-14T05:26:17.438Z,100.93
2023-05-14T05:27:22.720Z,104.21
2023-05-14T05:28:25.914Z,106.61
2023-05-14T05:29:29.146Z,102.37
2023-05-14T05:30:32.560Z,105.71
2023-05-14T05:31:36.208Z,105.00
2023-05-14T05:32:39.804Z,109.35
2023-05-14T05:33:43.211Z,107.17
2023-05-14T05:34:46.553Z,107.74
2023-05-14T05:35:50.856Z,111.59
2023-05-14T05:36:54.099Z,102.92
2023-05-14T05:38:00.477Z,108.32
2023-05-14T05:39:04.704Z,115.69
2023-05-14T05:40:09.876Z,116.43
2023-05-14T05:41:13.300Z,106.53
2023-05-14T05:42:16.566Z,103.18
2023-05-14T05:43:19.847Z,107.53
2023-05-14T05:44:23.099Z,102.53
2023-05-14T05:45:26.309Z,97.91
2023-05-14T05:46:29.977Z,106.27
2023-05-14T05:47:33.506Z,97.80
2023-05-14T05:48:36.707Z,103.32
2023-05-14T05:49:39.954Z,98.12
2023-05-14T05:50:45.465Z,96.20
2023-05-14T05:51:48.657Z,99.48
2023-05-14T05:52:52.764Z,97.64
2023-05-14T05:53:56.070Z,96.49
2023-05-14T05:54:59.319Z,90.80
2023-05-14T05:56:02.551Z,87.30
2023-05-14T05:57:05.930Z,89.17
2023-05-14T05:58:09.550Z,89.75
2023-05-14T05:59:13.014Z,89.32
2023-05-14T06:00:17.728Z,90.64
2023-05-14T06:01:20.864Z,91.56
2023-05-14T06:02:25.749Z,89.10
2023-05-14T06:03:29.127Z,89.02
2023-05-14T06:04:32.466Z,88.35
2023-05-14T06:05:35.866Z,90.59
2023-05-14T06:06:39.067Z,86.77
2023-05-14T06:07:42.338Z,87.68
2023-05-14T06:08:45.598Z,89.31
2023-05-14T06:09:48.794Z,80.45
2023-05-14T06:10:52.160Z,93.07
2023-05-14T06:11:55.392Z,91.94
2023-05-14T06:12:58.637Z,95.41
2023-05-14T06:14:02.081Z,95.89
2023-05-14T06:15:05.718Z,95.50
2023-05-14T06:16:09.082Z,91.81
2023-05-14T06:17:12.642Z,92.79
2023-05-14T06:18:16.021Z,89.42
2023-05-14T06:19:19.869Z,93.94
2023-05-14T06:20:23.459Z,94.61
2023-05-14T06:21:27.075Z,90.28
2023-05-14T06:22:30.399Z,91.44
2023-05-14T06:23:34.145Z,92.53
2023-05-14T06:24:37.389Z,89.17
2023-05-14T06:25:40.600Z,87.23
2023-05-14T06:26:43.783Z,84.57
2023-05-14T06:27:47.010Z,81.80
2023-05-14T06:28:50.149Z,84.55
2023-05-14T06:29:53.424Z,84.21
2023-05-14T06:30:56.594Z,88.60
2023-05-14T06:32:04.414Z,81.17
2023-05-14T06:33:07.664Z,85.02
2023-05-14T06:34:11.459Z,87.99
2023-05-14T06:35:14.656Z,83.42
2023-05-14T06:36:17.852Z,79.67
2023-05-14T06:37:21.164Z,80.23
2023-05-14T06:38:24.445Z,76.54
2023-05-14T06:39:27.749Z,81.83
2023-05-14T06:40:30.990Z,79.42
2023-05-14T06:41:34.140Z,81.81
2023-05-14T06:42:37.300Z,81.54
2023-05-14T06:43:41.072Z,75.70
2023-05-14T06:44:44.506Z,79.30
2023-05-14T06:45:51.845Z,79.50
2023-05-14T06:46:55.051Z,77.01
2023-05-14T06:47:58.304Z,72.30
2023-05-14T06:49:01.588Z,78.61
2023-05-14T06:50:05.194Z,78.48
2023-05-14T06:51:08.491Z,76.85
2023-05-14T06:52:11.733Z,75.93
2023-05-14T06:53:16.020Z,76.83
2023-05-14T06:54:21.130Z,71.95
2023-05-14T06:55:24.491Z,79.37
2023-05-14T06:56:27.756Z,71.43
2023-05-14T06:57:30.989Z,73.08
2023-05-14T06:58:34.214Z,69.54
2023-05-14T06:59:37.374Z,73.37
2023-05-14T07:00:41.305Z,72.70
2023-05-14T07:01:44.539Z,75.41
2023-05-14T07:02:47.788Z,75.15
2023-05-14T07:03:51.116Z,72.91
2023-05-14T07:04:54.346Z,72.29
2023-05-14T07:05:57.605Z,70.67
2023-05-14T07:07:00.915Z,68.92
2023-05-14T07:08:04.212Z,70.59
2023-05-14T07:09:08.002Z,71.72
2023-05-14T07:10:11.473Z,71.37
2023-05-14T07:11:15.485Z,76.36
2023-05-14T07:12:18.721Z,73.27
2023-05-14T07:13:22.070Z,71.19
2023-05-14T07:14:25.224Z,70.04
2023-05-14T07:15:28.681Z,70.85
2023-05-14T07:16:32.175Z,73.44
2023-05-14T07:17:35.528Z,71.72
2023-05-14T07:18:38.860Z,73.49
2023-05-14T07:19:42.178Z,69.22
2023-05-14T07:20:45.373Z,69.90
2023-05-14T07:21:48.558Z,70.27
2023-05-14T07:22:53.392Z,70.52
2023-05-14T07:23:56.662Z,70.61
2023-05-14T07:24:59.793Z,73.50
2023-05-14T07:26:04.285Z,73.08
2023-05-14T07:27:07.572Z,69.85
2023-05-14T07:28:11.009Z,69.44
2023-05-14T07:29:14.193Z,67.51
2023-05-14T07:30:17.596Z,66.30
2023-05-14T07:31:21.269Z,69.41
2023-05-14T07:32:25.749Z,64.29
2023-05-14T07:33:29.069Z,65.75
2023-05-14T07:34:32.333Z,70.59
2023-05-14T07:35:35.675Z,68.72
2023-05-14T07:36:38.949Z,61.77
2023-05-14T07:37:43.616Z,67.91
2023-05-14T07:38:46.937Z,68.58
2023-05-14T07:39:50.136Z,67.69
2023-05-14T07:40:53.460Z,70.71
2023-05-14T07:41:56.772Z,64.95
2023-05-14T07:42:59.978Z,68.51
2023-05-14T07:44:03.281Z,69.73
2023-05-14T07:45:07.365Z,67.54
2023-05-14T07:46:10.802Z,63.91
2023-05-14T07:47:14.040Z,64.25
2023-05-14T07:48:17.444Z,65.43
2023-05-14T07:49:20.665Z,66.85
2023-05-14T07:50:24.397Z,65.02
2023-05-14T07:51:29.081Z,68.24
2023-05-14T07:52:32.304Z,65.23
2023-05-14T07:53:35.663Z,66.43
2023-05-14T07:54:39.459Z,61.82
2023-05-14T07:55:43.523Z,65.31
2023-05-14T07:56:46.818Z,67.11
2023-05-14T07:57:50.303Z,63.21
2023-05-14T07:58:53.581Z,62.11
2023-05-14T07:59:57.596Z,62.65
2023-05-14T08:01:02.095Z,64.04
2023-05-14T08:02:05.468Z,63.71
2023-05-14T08:03:08.870Z,62.66
2023-05-14T08:04:17.005Z,64.63
2023-05-14T08:05:20.572Z,65.30
2023-05-14T08:06:24.448Z,63.54
2023-05-14T08:07:29.967Z,64.01
2023-05-14T08:08:33.194Z,68.63
2023-05-14T08:09:36.600Z,64.19
2023-05-14T08:10:39.935Z,66.12
2023-05-14T08:11:43.367Z,63.57
2023-05-14T08:12:46.608Z,61.72
2023-05-14T08:13:49.860Z,61.76
2023-05-14T08:14:53.532Z,60.40
2023-05-14T08:15:57.237Z,62.62
2023-05-14T08:17:00.628Z,62.21
2023-05-14T08:18:04.228Z,60.34
2023-05-14T08:19:07.720Z,59.61
2023-05-14T08:20:12.742Z,62.25
2023-05-14T08:21:15.971Z,59.88
2023-05-14T08:22:19.168Z,61.48
2023-05-14T08:23:23.245Z,59.14
2023-05-14T08:24:26.673Z,62.89
2023-05-14T08:25:30.671Z,58.63
2023-05-14T08:26:33.797Z,59.95
2023-05-14T08:27:38.540Z,61.45
2023-05-14T08:28:41.709Z,60.16
2023-05-14T08:29:44.930Z,59.84
2023-05-14T08:30:48.278Z,58.44
2023-05-14T08:31:51.985Z,59.70
2023-05-14T08:32:55.295Z,58.53
2023-05-14T08:33:58.537Z,59.26
2023-05-14T08:35:02.208Z,59.91
2023-05-14T08:36:05.761Z,60.82
2023-05-14T08:37:08.920Z,61.48
2023-05-14T08:38:12.212Z,60.29
2023-05-14T08:39:15.408Z,59.19
2023-05-14T08:40:19.382Z,59.44
2023-05-14T08:41:22.761Z,57.43
2023-05-14T08:42:27.691Z,57.02
2023-05-14T08:44:14.615Z,54.17
2023-05-14T08:45:26.408Z,56.05
2023-05-14T08:46:32.858Z,54.75
2023-05-14T08:47:37.778Z,56.55
2023-05-14T08:48:44.104Z,56.76
2023-05-14T08:50:08.883Z,54.50
2023-05-14T08:51:12.467Z,59.09
2023-05-14T08:52:19.206Z,57.67
2023-05-14T08:53:22.416Z,55.79
2023-05-14T08:54:27.036Z,55.33
2023-05-14T08:55:33.618Z,56.46
2023-05-14T08:56:37.728Z,55.50
2023-05-14T08:57:41.309Z,58.16
2023-05-14T08:58:44.543Z,55.83
2023-05-14T08:59:48.526Z,56.05
2023-05-14T09:00:52.419Z,62.14
2023-05-14T09:01:57.711Z,56.36
2023-05-14T09:03:01.602Z,59.04
2023-05-14T09:04:09.148Z,56.97
2023-05-14T09:05:13.097Z,56.38
2023-05-14T09:06:16.875Z,59.61
2023-05-14T09:07:20.127Z,59.63
2023-05-14T09:08:23.418Z,55.53
2023-05-14T09:09:28.691Z,57.01
2023-05-14T09:10:31.937Z,60.43
2023-05-14T09:11:35.255Z,53.44
2023-05-14T09:12:38.439Z,55.30
2023-05-14T09:13:41.810Z,55.67
2023-05-14T09:14:46.205Z,56.57
2023-05-14T09:15:51.919Z,57.38
2023-05-14T09:16:56.166Z,56.90
2023-05-14T09:17:59.600Z,54.58
2023-05-14T09:19:03.108Z,54.61
2023-05-14T09:20:08.173Z,57.51
2023-05-14T09:21:11.595Z,56.68
2023-05-14T09:22:18.005Z,59.07
2023-05-14T09:23:21.405Z,58.18
2023-05-14T09:24:26.995Z,53.11
2023-05-14T09:25:33.894Z,58.16
2023-05-14T09:26:37.119Z,59.19
2023-05-14T09:27:40.553Z,57.78
2023-05-14T09:28:44.719Z,57.77
2023-05-14T09:29:49.280Z,57.24
2023-05-14T09:30:52.915Z,57.61
2023-05-14T09:31:58.154Z,55.24
2023-05-14T09:33:01.496Z,57.66
2023-05-14T09:34:05.135Z,56.81
2023-05-14T09:35:18.116Z,57.43
2023-05-14T09:36:21.547Z,58.35
2023-05-14T09:37:26.750Z,56.53
2023-05-14T09:38:31.610Z,57.30
2023-05-14T09:39:39.863Z,58.12
2023-05-14T09:40:43.327Z,58.66
2023-05-14T09:41:46.560Z,60.27
2023-05-14T09:42:50.844Z,55.46
2023-05-14T09:43:54.125Z,57.57
2023-05-14T09:44:57.467Z,58.85
2023-05-14T09:46:00.767Z,54.71
2023-05-14T09:47:05.001Z,55.45
2023-05-14T09:48:09.630Z,52.75
2023-05-14T09:49:13.202Z,56.33
2023-05-14T09:50:16.552Z,60.95
2023-05-14T09:51:20.550Z,57.82
2023-05-14T09:52:27.277Z,56.52
2023-05-14T09:53:31.652Z,56.59
2023-05-14T09:54:36.132Z,58.96
2023-05-14T09:55:39.914Z,56.25
2023-05-14T09:56:44.924Z,61.21
2023-05-14T09:57:48.423Z,56.98
2023-05-14T09:58:51.632Z,57.42
2023-05-14T09:59:55.021Z,54.30
2023-05-14T10:00:59.294Z,58.57
2023-05-14T10:02:04.515Z,59.34
2023-05-14T10:03:08.875Z,56.83
2023-05-14T10:04:13.389Z,55.52
2023-05-14T10:05:16.903Z,55.99
2023-05-14T10:06:25.584Z,57.81
2023-05-14T10:07:47.507Z,57.96
2023-05-14T10:08:57.101Z,59.20
2023-05-14T10:10:04.269Z,55.85
2023-05-14T10:11:14.366Z,54.78
2023-05-14T10:12:24.156Z,59.11
2023-05-14T10:13:33.790Z,54.91
2023-05-14T10:14:43.894Z,59.76
2023-05-14T10:16:22.462Z,54.61
2023-05-14T10:17:33.169Z,52.81
2023-05-14T10:18:44.161Z,56.62
2023-05-14T10:19:54.576Z,55.70
2023-05-14T10:21:08.647Z,59.02
2023-05-14T10:22:16.385Z,55.76
2023-05-14T10:23:20.453Z,57.45
2023-05-14T10:24:24.540Z,55.81
2023-05-14T10:25:28.617Z,59.50
2023-05-14T10:26:34.367Z,57.78
2023-05-14T10:27:37.958Z,54.76
2023-05-14T10:28:41.983Z,57.30
2023-05-14T10:29:56.108Z,56.23
2023-05-14T10:31:01.667Z,56.93
2023-05-14T10:32:07.650Z,56.32
2023-05-14T10:33:15.219Z,55.54
2023-05-14T10:34:57.003Z,55.54
2023-05-14T10:36:08.234Z,56.10
2023-05-14T10:37:31.708Z,59.41
2023-05-14T10:38:39.316Z,60.24
2023-05-14T10:39:55.599Z,56.52
2023-05-14T10:41:07.153Z,56.66
2023-05-14T10:42:36.073Z,59.33
2023-05-14T10:43:41.896Z,55.75
2023-05-14T10:45:02.287Z,55.38
2023-05-14T10:46:07.026Z,55.07
2023-05-14T10:47:10.439Z,55.01
2023-05-14T10:48:13.888Z,56.23
2023-05-14T10:49:28.243Z,56.25
2023-05-14T10:50:39.836Z,54.07
2023-05-14T10:51:43.165Z,55.34
2023-05-14T10:52:47.152Z,58.34
2023-05-14T10:53:50.546Z,54.67
2023-05-14T10:55:01.870Z,56.08
2023-05-14T10:56:12.268Z,55.90
2023-05-14T10:57:15.523Z,52.68
2023-05-14T10:58:19.211Z,55.20
2023-05-14T10:59:28.234Z,55.52
2023-05-14T11:00:35.195Z,57.50
2023-05-14T11:01:41.910Z,56.49
2023-05-14T11:02:46.575Z,56.54
2023-05-14T11:03:54.587Z,55.21
2023-05-14T11:04:59.826Z,53.95
2023-05-14T11:06:05.051Z,53.09
2023-05-14T11:07:08.926Z,54.68
2023-05-14T11:08:14.437Z,52.61
2023-05-14T11:09:18.726Z,54.30
2023-05-14T11:10:22.980Z,53.05
2023-05-14T11:11:26.994Z,55.93
2023-05-14T11:12:31.147Z,51.07
2023-05-14T11:13:35.252Z,54.79
2023-05-14T11:14:38.575Z,52.44
2023-05-14T11:15:47.739Z,50.77
2023-05-14T11:16:51.348Z,52.05
2023-05-14T11:17:55.207Z,53.05
2023-05-14T11:19:06.065Z,52.29
2023-05-14T11:20:11.089Z,50.87
2023-05-14T11:21:14.436Z,52.32
2023-05-14T11:22:17.600Z,54.54
2023-05-14T11:23:24.072Z,54.44
2023-05-14T11:24:27.207Z,52.80
2023-05-14T11:25:30.733Z,49.92
2023-05-14T11:26:34.842Z,55.45
2023-05-14T11:27:39.997Z,54.21
2023-05-14T11:28:43.267Z,53.64
2023-05-14T11:29:48.526Z,53.91
2023-05-14T11:30:52.407Z,52.29
2023-05-14T11:31:55.999Z,49.75
2023-05-14T11:33:01.767Z,49.25
2023-05-14T11:34:07.927Z,49.72
2023-05-14T11:35:11.452Z,52.63
2023-05-14T11:36:15.423Z,50.54
2023-05-14T11:37:19.014Z,54.54
2023-05-14T11:38:22.552Z,55.03
2023-05-14T11:39:25.689Z,51.39
2023-05-14T11:40:29.118Z,53.42
2023-05-14T11:41:32.429Z,50.87
2023-05-14T11:42:35.636Z,51.22
2023-05-14T11:43:38.903Z,53.94
2023-05-14T11:44:45.081Z,52.03
2023-05-14T11:45:53.337Z,52.94
2023-05-14T11:46:57.954Z,53.60
2023-05-14T11:48:01.195Z,48.09
2023-05-14T11:49:08.133Z,46.26
2023-05-14T11:50:11.921Z,51.28
2023-05-14T11:51:15.173Z,48.96
2023-05-14T11:52:20.045Z,51.96
2023-05-14T11:53:28.750Z,47.47
2023-05-14T11:54:34.100Z,52.07
2023-05-14T11:55:37.617Z,50.51
2023-05-14T11:56:40.893Z,50.23
2023-05-14T11:57:44.370Z,50.61
2023-05-14T11:58:56.453Z,51.41
2023-05-14T11:59:59.852Z,48.90
2023-05-14T12:01:03.136Z,45.92
2023-05-14T12:02:11.505Z,51.56
2023-05-14T12:03:14.931Z,49.30
2023-05-14T12:04:19.642Z,47.71
2023-05-14T12:05:23.017Z,45.56
2023-05-14T12:06:34.487Z,46.93
2023-05-14T12:07:37.630Z,50.94
2023-05-14T12:08:40.788Z,48.77
2023-05-14T12:09:52.062Z,47.19
2023-05-14T12:10:55.856Z,46.82
2023-05-14T12:11:59.161Z,46.70
2023-05-14T12:13:08.357Z,45.81
2023-05-14T12:14:22.503Z,47.87
2023-05-14T12:15:27.308Z,48.92
2023-05-14T12:16:35.417Z,48.17
2023-05-14T12:17:40.522Z,47.53
2023-05-14T12:18:43.914Z,46.37
2023-05-14T12:19:49.972Z,51.09
2023-05-14T12:20:53.225Z,48.58
2023-05-14T12:21:56.453Z,45.32
2023-05-14T12:22:59.769Z,42.43
2023-05-14T12:24:03.340Z,45.94
2023-05-14T12:25:14.065Z,44.50
2023-05-14T12:26:17.345Z,47.66
2023-05-14T12:27:29.483Z,50.68
2023-05-14T12:28:36.076Z,47.97
2023-05-14T12:29:41.183Z,44.37
2023-05-14T12:30:44.404Z,45.81
2023-05-14T12:31:49.879Z,43.95
2023-05-14T12:32:54.369Z,46.44
2023-05-14T12:33:58.206Z,45.98
2023-05-14T12:35:04.274Z,46.98
2023-05-14T12:36:20.722Z,48.44
2023-05-14T12:37:25.506Z,49.44
2023-05-14T12:38:29.644Z,47.57
2023-05-14T12:39:35.456Z,47.07
2023-05-14T12:40:38.691Z,49.79
2023-05-14T12:41:42.022Z,47.26
2023-05-14T12:42:45.247Z,48.63
2023-05-14T12:43:50.387Z,48.90
2023-05-14T12:44:53.573Z,46.87
2023-05-14T12:45:56.773Z,48.89
2023-05-14T12:47:00.198Z,48.29
2023-05-14T12:48:03.808Z,48.68
2023-05-14T12:49:07.586Z,47.99
2023-05-14T12:50:11.124Z,48.34
2023-05-14T12:51:14.451Z,53.40
2023-05-14T12:52:33.037Z,52.02
2023-05-14T12:53:40.501Z,49.90
2023-05-14T12:54:44.123Z,48.32
2023-05-14T12:55:47.938Z,45.60
2023-05-14T12:56:52.489Z,46.73
2023-05-14T12:57:55.715Z,44.44
2023-05-14T12:58:58.999Z,45.09
2023-05-14T13:00:03.133Z,41.99
2023-05-14T13:01:06.836Z,41.31
2023-05-14T13:02:10.132Z,41.10
2023-05-14T13:03:13.356Z,42.86
2023-05-14T13:04:16.610Z,41.07
2023-05-14T13:05:19.811Z,42.34
2023-05-14T13:06:23.370Z,40.86
2023-05-14T13:07:26.703Z,45.28
2023-05-14T13:08:30.563Z,48.64
2023-05-14T13:09:33.763Z,43.69
2023-05-14T13:10:37.061Z,47.00
2023-05-14T13:11:40.292Z,44.75
2023-05-14T13:12:43.463Z,43.61
2023-05-14T13:13:46.682Z,48.36
2023-05-14T13:14:49.948Z,45.91
2023-05-14T13:15:54.197Z,46.54
2023-05-14T13:16:57.910Z,47.06
2023-05-14T13:18:01.601Z,46.03
2023-05-14T13:19:04.928Z,44.96
2023-05-14T13:20:09.049Z,41.63
2023-05-14T13:21:13.355Z,41.94
2023-05-14T13:22:17.847Z,46.86
2023-05-14T13:23:21.097Z,44.85
2023-05-14T13:24:25.840Z,45.55
2023-05-14T13:25:29.122Z,46.78
2023-05-14T13:26:32.371Z,45.95
2023-05-14T13:27:36.543Z,44.70
2023-05-14T13:28:39.803Z,45.15
2023-05-14T13:29:43.230Z,43.67
2023-05-14T13:31:15.010Z,43.50
2023-05-14T13:32:18.175Z,42.05
2023-05-14T13:33:21.390Z,40.16
2023-05-14T13:34:24.701Z,36.83
2023-05-14T13:35:27.997Z,37.73
2023-05-14T13:36:32.946Z,41.06
2023-05-14T13:37:36.548Z,37.88
2023-05-14T13:38:40.042Z,39.02
2023-05-14T13:39:43.380Z,36.13
2023-05-14T13:40:46.670Z,39.47
2023-05-14T13:41:51.433Z,38.87
2023-05-14T13:42:54.585Z,36.43
2023-05-14T13:43:57.782Z,38.70
2023-05-14T13:45:01.915Z,34.28
2023-05-14T13:46:07.435Z,35.65
2023-05-14T13:47:12.280Z,36.86
2023-05-14T13:48:15.506Z,39.96
2023-05-14T13:49:18.896Z,38.04
2023-05-14T13:50:22.939Z,39.59
2023-05-14T13:51:26.219Z,37.86
2023-05-14T13:52:29.444Z,42.37
2023-05-14T13:53:32.778Z,39.47
2023-05-14T13:54:35.997Z,38.84
2023-05-14T13:55:39.197Z,37.71
2023-05-14T13:56:42.614Z,40.15
2023-05-14T13:57:45.856Z,37.57
2023-05-14T13:58:49.996Z,36.01
2023-05-14T13:59:53.397Z,37.83
2023-05-14T14:00:57.314Z,39.61
2023-05-14T14:02:00.569Z,38.72
2023-05-14T14:03:03.961Z,40.51
2023-05-14T14:04:07.199Z,38.78